createdAt,value
2023-06-09T00:00:00.745Z,72.5
2023-06-09T00:01:00.715Z,72.5
2023-06-09T00:02:00.760Z,72.9
2023-06-09T00:03:04.602Z,73.2
2023-06-09T00:04:00.880Z,72.9
2023-06-09T00:05:00.756Z,72.6
2023-06-09T00:06:00.733Z,72.5
2023-06-09T00:07:00.724Z,72.5
2023-06-09T00:08:00.738Z,72.6
2023-06-09T00:09:00.732Z,72.6
2023-06-09T00:10:00.732Z,72.9
2023-06-09T00:11:00.730Z,73.2
2023-06-09T00:12:00.763Z,73.2
2023-06-09T00:13:00.729Z,73.2
2023-06-09T00:14:00.738Z,73.2
2023-06-09T00:15:00.748Z,73.2
2023-06-09T00:16:00.741Z,73.2
2023-06-09T00:17:00.759Z,73.1
2023-06-09T00:18:00.808Z,73.5
2023-06-09T00:19:00.750Z,73.1
2023-06-09T00:20:00.758Z,73.2
2023-06-09T00:21:00.743Z,73.2
2023-06-09T00:22:00.766Z,73.2
2023-06-09T00:23:00.741Z,72.9
2023-06-09T00:24:00.788Z,73.2
2023-06-09T00:25:00.750Z,73.2
2023-06-09T00:26:00.743Z,72.8
2023-06-09T00:27:00.764Z,73.2
2023-06-09T00:28:00.764Z,73.2
2023-06-09T00:29:00.748Z,73.2
2023-06-09T00:30:00.748Z,72.9
2023-06-09T00:31:00.794Z,72.9
2023-06-09T00:32:00.747Z,73.2
2023-06-09T00:33:00.926Z,73.2
2023-06-09T00:34:00.749Z,73.2
2023-06-09T00:35:00.748Z,73.2
2023-06-09T00:36:00.790Z,73.2
2023-06-09T00:37:00.750Z,73.2
2023-06-09T00:38:00.751Z,73.1
2023-06-09T00:39:00.757Z,73.5
2023-06-09T00:40:00.761Z,73.8
2023-06-09T00:41:00.753Z,73.8
2023-06-09T00:42:00.765Z,73.8
2023-06-09T00:43:00.819Z,73.8
2023-06-09T00:44:00.785Z,73.8
2023-06-09T00:45:00.765Z,73.5
2023-06-09T00:46:00.788Z,73.8
2023-06-09T00:47:00.921Z,73.8
2023-06-09T00:48:00.853Z,73.8
2023-06-09T00:49:00.805Z,73.8
2023-06-09T00:50:00.768Z,73.8
2023-06-09T00:51:00.792Z,73.8
2023-06-09T00:52:00.785Z,73.8
2023-06-09T00:53:00.770Z,73.8
2023-06-09T00:54:00.766Z,73.8
2023-06-09T00:55:00.770Z,74.1
2023-06-09T00:56:00.770Z,74.4
2023-06-09T00:57:00.779Z,74.4
2023-06-09T00:58:00.780Z,74.4
2023-06-09T00:59:00.805Z,74.7
2023-06-09T01:00:00.786Z,74.1
2023-06-09T01:01:00.843Z,74.1
2023-06-09T01:02:00.820Z,74.4
2023-06-09T01:03:00.836Z,74.1
2023-06-09T01:06:00.470Z,74.4
2023-06-09T01:07:00.487Z,73.8
2023-06-09T01:08:00.471Z,74.1
2023-06-09T01:09:00.471Z,73.8
2023-06-09T01:10:00.552Z,73.8
2023-06-09T01:11:00.468Z,74.1
2023-06-09T01:12:00.472Z,74.4
2023-06-09T01:13:00.521Z,74.4
2023-06-09T01:14:00.479Z,74.7
2023-06-09T01:15:00.482Z,74.7
2023-06-09T01:16:00.496Z,75
2023-06-09T01:17:00.605Z,75
2023-06-09T01:18:00.517Z,75.6
2023-06-09T01:19:00.492Z,75.6
2023-06-09T01:20:00.500Z,75.6
2023-06-09T01:21:00.490Z,75.9
2023-06-09T01:22:00.497Z,75.9
2023-06-09T01:23:00.504Z,76.2
2023-06-09T01:24:00.509Z,76.3
2023-06-09T01:25:00.487Z,76.2
2023-06-09T01:26:00.510Z,75.6
2023-06-09T01:27:00.510Z,75.6
2023-06-09T01:28:00.493Z,76.3
2023-06-09T01:29:00.525Z,75.9
2023-06-09T01:30:00.497Z,76.2
2023-06-09T01:31:00.499Z,76.2
2023-06-09T01:32:00.515Z,76.2
2023-06-09T01:33:00.614Z,76.2
2023-06-09T01:34:00.499Z,76.2
2023-06-09T01:35:00.521Z,75.6
2023-06-09T01:36:00.499Z,76.2
2023-06-09T01:37:00.511Z,75.6
2023-06-09T01:38:00.515Z,75.6
2023-06-09T01:39:00.521Z,75.6
2023-06-09T01:40:00.509Z,75.6
2023-06-09T01:41:00.530Z,75.3
2023-06-09T01:42:00.505Z,75
2023-06-09T01:43:00.544Z,75
2023-06-09T01:44:00.525Z,74.7
2023-06-09T01:45:00.515Z,74.7
2023-06-09T01:46:00.554Z,74.7
2023-06-09T01:47:00.510Z,75
2023-06-09T01:48:00.548Z,74.7
2023-06-09T01:49:00.522Z,75
2023-06-09T01:50:00.516Z,75.3
2023-06-09T01:51:00.514Z,75
2023-06-09T01:52:00.529Z,75.6
2023-06-09T01:53:00.518Z,75.9
2023-06-09T01:54:00.534Z,75.6
2023-06-09T01:55:00.535Z,75.9
2023-06-09T01:56:00.530Z,76.2
2023-06-09T01:57:00.525Z,76.2
2023-06-09T01:58:00.525Z,76.2
2023-06-09T01:59:00.526Z,75.9
2023-06-09T02:00:00.569Z,76.2
2023-06-09T02:01:01.273Z,76.5
2023-06-09T02:02:01.338Z,76.8
2023-06-09T02:03:01.286Z,76.8
2023-06-09T02:04:01.286Z,77.2
2023-06-09T02:05:01.324Z,77.1
2023-06-09T02:06:01.290Z,76.8
2023-06-09T02:07:01.265Z,76.8
2023-06-09T02:08:01.259Z,77.5
2023-06-09T02:09:01.303Z,77.4
2023-06-09T02:10:01.344Z,77.5
2023-06-09T02:11:01.285Z,78.1
2023-06-09T02:12:01.260Z,78.1
2023-06-09T02:13:01.282Z,78.1
2023-06-09T02:14:01.276Z,78.4
2023-06-09T02:15:01.273Z,78.4
2023-06-09T02:16:01.326Z,78.4
2023-06-09T02:17:01.276Z,78.4
2023-06-09T02:18:01.323Z,78.1
2023-06-09T02:19:01.306Z,78.1
2023-06-09T02:20:01.314Z,78.1
2023-06-09T02:21:01.263Z,78.1
2023-06-09T02:22:01.285Z,78.1
2023-06-09T02:23:01.270Z,78.4
2023-06-09T02:24:01.323Z,78.7
2023-06-09T02:25:01.284Z,78.7
2023-06-09T02:26:01.276Z,79
2023-06-09T02:27:01.265Z,78.7
2023-06-09T02:28:01.283Z,78.7
2023-06-09T02:29:00.253Z,79
2023-06-09T02:30:00.254Z,79
2023-06-09T02:31:00.361Z,79.3
2023-06-09T02:32:00.324Z,79.3
2023-06-09T02:33:00.342Z,79.3
2023-06-09T02:34:00.241Z,79.3
2023-06-09T02:35:00.281Z,79.6
2023-06-09T02:36:00.243Z,79.9
2023-06-09T02:37:00.248Z,80
2023-06-09T02:38:00.241Z,79.9
2023-06-09T02:39:00.242Z,80
2023-06-09T02:40:00.251Z,80
2023-06-09T02:41:00.257Z,79.6
2023-06-09T02:42:00.247Z,79.3
2023-06-09T02:43:00.273Z,79.3
2023-06-09T02:44:00.251Z,79.3
2023-06-09T02:45:00.268Z,79.3
2023-06-09T02:46:00.330Z,79.3
2023-06-09T02:47:00.258Z,79.3
2023-06-09T02:48:00.274Z,79
2023-06-09T02:49:00.274Z,78.4
2023-06-09T02:50:00.315Z,78.4
2023-06-09T02:51:00.261Z,78.1
2023-06-09T02:52:00.270Z,78.1
2023-06-09T02:53:00.289Z,78.1
2023-06-09T02:54:00.263Z,78.4
2023-06-09T02:55:00.267Z,78.7
2023-06-09T02:56:00.292Z,78.1
2023-06-09T02:57:00.268Z,78.4
2023-06-09T02:58:00.272Z,78.7
2023-06-09T02:59:00.277Z,78.7
2023-06-09T03:00:00.311Z,78.7
2023-06-09T03:01:00.334Z,78.7
2023-06-09T03:02:00.273Z,78.7
2023-06-09T03:03:00.382Z,78.7
2023-06-09T03:04:00.333Z,78.4
2023-06-09T03:05:00.312Z,78.7
2023-06-09T03:06:00.275Z,78.7
2023-06-09T03:07:00.277Z,78.1
2023-06-09T03:08:00.279Z,78.1
2023-06-09T03:09:00.293Z,78.1
2023-06-09T03:10:00.314Z,78.1
2023-06-09T03:11:00.279Z,78.1
2023-06-09T03:12:00.277Z,78.1
2023-06-09T03:13:00.283Z,78.1
2023-06-09T03:14:00.278Z,78.1
2023-06-09T03:15:00.289Z,77.8
2023-06-09T03:16:00.282Z,77.5
2023-06-09T03:17:00.300Z,77.8
2023-06-09T03:18:00.349Z,78.1
2023-06-09T03:19:00.288Z,78.4
2023-06-09T03:20:00.334Z,78.1
2023-06-09T03:21:00.296Z,78.1
2023-06-09T03:22:00.292Z,77.7
2023-06-09T03:23:00.290Z,77.5
2023-06-09T03:24:00.299Z,77.5
2023-06-09T03:25:00.296Z,78.1
2023-06-09T03:26:00.298Z,78.1
2023-06-09T03:27:00.296Z,78.1
2023-06-09T03:28:00.307Z,78.1
2023-06-09T03:29:00.307Z,78.1
2023-06-09T03:30:00.301Z,77.7
2023-06-09T03:31:00.333Z,78.1
2023-06-09T03:32:00.311Z,77.8
2023-06-09T03:33:00.335Z,77.7
2023-06-09T03:34:00.299Z,77.4
2023-06-09T03:35:00.311Z,77.7
2023-06-09T03:36:00.301Z,78.1
2023-06-09T03:37:00.312Z,77.4
2023-06-09T03:38:00.307Z,78.1
2023-06-09T03:39:00.311Z,78.1
2023-06-09T03:40:00.339Z,78.1
2023-06-09T03:41:00.355Z,77.7
2023-06-09T03:42:00.326Z,78
2023-06-09T03:43:00.349Z,78.1
2023-06-09T03:44:00.321Z,77.8
2023-06-09T03:45:00.314Z,78.4
2023-06-09T03:46:00.326Z,78.1
2023-06-09T03:47:00.511Z,77.7
2023-06-09T03:48:00.395Z,77.4
2023-06-09T03:49:00.319Z,77.4
2023-06-09T03:50:00.352Z,77.8
2023-06-09T03:51:00.382Z,77.4
2023-06-09T03:52:00.327Z,77.4
2023-06-09T03:53:00.320Z,77.4
2023-06-09T03:54:00.358Z,77.8
2023-06-09T03:55:00.329Z,77.4
2023-06-09T03:56:00.321Z,77.4
2023-06-09T03:57:00.328Z,77.4
2023-06-09T03:58:00.347Z,77.4
2023-06-09T03:59:00.331Z,77.4
2023-06-09T04:00:00.364Z,77.1
2023-06-09T04:01:00.336Z,77.4
2023-06-09T04:02:00.390Z,77.4
2023-06-09T04:03:00.405Z,78.1
2023-06-09T04:04:00.393Z,78.1
2023-06-09T04:05:00.345Z,78.1
2023-06-09T04:06:00.359Z,78.1
2023-06-09T04:07:00.426Z,78.1
2023-06-09T04:08:00.341Z,78.4
2023-06-09T04:09:00.365Z,78.4
2023-06-09T04:10:00.372Z,78.7
2023-06-09T04:11:00.353Z,78.7
2023-06-09T04:12:00.351Z,78.7
2023-06-09T04:13:00.355Z,79
2023-06-09T04:14:00.375Z,79.3
2023-06-09T04:15:00.384Z,79.3
2023-06-09T04:16:00.373Z,79.3
2023-06-09T04:17:00.386Z,79.3
2023-06-09T04:18:00.466Z,79.6
2023-06-09T04:19:00.357Z,79.6
2023-06-09T04:20:00.356Z,80
2023-06-09T04:21:00.378Z,79.9
2023-06-09T04:22:00.358Z,80
2023-06-09T04:23:00.364Z,80
2023-06-09T04:24:00.396Z,80.3
2023-06-09T04:25:00.367Z,80.3
2023-06-09T04:26:00.369Z,80.6
2023-06-09T04:27:00.384Z,80.9
2023-06-09T04:28:00.373Z,80.6
2023-06-09T04:29:00.369Z,81.2
2023-06-09T04:30:00.397Z,81.2
2023-06-09T04:31:00.386Z,80.9
2023-06-09T04:32:00.715Z,81.3
2023-06-09T04:33:00.487Z,80.9
2023-06-09T04:34:00.374Z,80.6
2023-06-09T04:35:00.378Z,80.6
2023-06-09T04:36:00.375Z,80.7
2023-06-09T04:37:00.435Z,80.7
2023-06-09T04:38:03.493Z,80.7
2023-06-09T04:39:00.378Z,80.1
2023-06-09T04:40:00.416Z,80.1
2023-06-09T04:41:00.380Z,78.5
2023-06-09T04:42:00.380Z,79.4
2023-06-09T04:43:00.490Z,79.4
2023-06-09T04:44:00.384Z,79.4
2023-06-09T04:45:00.393Z,79.2
2023-06-09T04:46:00.444Z,79.2
2023-06-09T04:47:00.385Z,78.8
2023-06-09T04:48:00.447Z,78.2
2023-06-09T04:49:00.382Z,78.2
2023-06-09T04:50:00.419Z,78.2
2023-06-09T04:51:00.387Z,77.9
2023-06-09T04:52:00.450Z,77.3
2023-06-09T04:53:00.394Z,78.2
2023-06-09T04:54:00.417Z,78.2
2023-06-09T04:55:00.433Z,77.6
2023-06-09T04:56:00.394Z,77.6
2023-06-09T04:57:00.398Z,77.7
2023-06-09T04:58:00.409Z,77.6
2023-06-09T04:59:00.400Z,77.7
2023-06-09T05:00:00.413Z,77
2023-06-09T05:01:00.421Z,77.4
2023-06-09T05:02:00.505Z,76.4
2023-06-09T05:03:00.441Z,76.7
2023-06-09T05:04:00.411Z,76.4
2023-06-09T05:05:00.451Z,76.4
2023-06-09T05:06:00.402Z,76.7
2023-06-09T05:07:00.414Z,76.1
2023-06-09T05:08:00.413Z,76.1
2023-06-09T05:09:00.404Z,75.2
2023-06-09T05:10:00.456Z,75.8
2023-06-09T05:11:00.403Z,76.5
2023-06-09T05:12:00.408Z,75.8
2023-06-09T05:13:00.416Z,75.5
2023-06-09T05:14:00.424Z,75.5
2023-06-09T05:15:00.407Z,74.6
2023-06-09T05:16:00.517Z,75.2
2023-06-09T05:17:00.417Z,75.2
2023-06-09T05:18:00.433Z,75.2
2023-06-09T05:19:00.433Z,74.6
2023-06-09T05:20:00.421Z,75.2
2023-06-09T05:21:00.412Z,74.6
2023-06-09T05:22:00.428Z,74.9
2023-06-09T05:23:00.423Z,75.3
2023-06-09T05:24:00.438Z,75.3
2023-06-09T05:25:00.420Z,74.9
2023-06-09T05:26:00.420Z,74
2023-06-09T05:27:00.419Z,74.6
2023-06-09T05:28:00.425Z,74.6
2023-06-09T05:29:00.441Z,74
2023-06-09T05:30:00.442Z,74.6
2023-06-09T05:31:00.434Z,74
2023-06-09T05:32:00.569Z,74.3
2023-06-09T05:33:00.504Z,74.3
2023-06-09T05:34:00.425Z,73.7
2023-06-09T05:35:00.433Z,74.1
2023-06-09T05:36:00.447Z,74
2023-06-09T05:37:00.443Z,73.4
2023-06-09T05:38:00.441Z,74.1
2023-06-09T05:39:00.448Z,73.4
2023-06-09T05:40:00.457Z,72.2
2023-06-09T05:41:00.447Z,73.5
2023-06-09T05:42:00.461Z,73.5
2023-06-09T05:43:00.444Z,73.4
2023-06-09T05:44:00.448Z,73.4
2023-06-09T05:45:00.469Z,73.1
2023-06-09T05:46:00.521Z,72.8
2023-06-09T05:47:00.446Z,73.2
2023-06-09T05:48:00.601Z,73.5
2023-06-09T05:49:00.462Z,73.2
2023-06-09T05:50:00.464Z,72.9
2023-06-09T05:51:00.455Z,72.5
2023-06-09T05:52:00.463Z,72.9
2023-06-09T05:53:00.458Z,72.6
2023-06-09T05:54:00.466Z,72.3
2023-06-09T05:55:00.477Z,72
2023-06-09T05:56:00.476Z,71.9
2023-06-09T05:57:00.553Z,71
2023-06-09T05:58:00.463Z,71
2023-06-09T05:59:00.471Z,71.6
2023-06-09T06:00:00.470Z,71.6
2023-06-09T06:01:00.513Z,71.7
2023-06-09T06:02:00.495Z,71.3
2023-06-09T06:03:00.586Z,70.1
2023-06-09T06:04:00.658Z,69.8
2023-06-09T06:05:00.466Z,70.4
2023-06-09T06:06:00.463Z,69.7
2023-06-09T06:07:00.463Z,70.4
2023-06-09T06:08:00.467Z,69.8
2023-06-09T06:09:00.481Z,69.8
2023-06-09T06:10:00.477Z,69.8
2023-06-09T06:11:00.468Z,68.5
2023-06-09T06:12:00.474Z,69.2
2023-06-09T06:13:00.481Z,69.2
2023-06-09T06:14:00.477Z,69.2
2023-06-09T06:15:00.478Z,68.6
2023-06-09T06:16:00.520Z,69.2
2023-06-09T06:17:00.477Z,67.9
2023-06-09T06:18:00.571Z,68.6
2023-06-09T06:19:00.479Z,68.6
2023-06-09T06:20:00.481Z,68.3
2023-06-09T06:21:00.477Z,68.3
2023-06-09T06:22:00.485Z,68.3
2023-06-09T06:23:00.483Z,68
2023-06-09T06:24:00.538Z,68
2023-06-09T06:25:00.484Z,67.3
2023-06-09T06:26:00.490Z,67.7
2023-06-09T06:27:00.501Z,68
2023-06-09T06:28:00.501Z,67.3
2023-06-09T06:29:00.492Z,67.4
2023-06-09T06:30:00.495Z,66.4
2023-06-09T06:31:00.523Z,66.7
2023-06-09T06:32:00.533Z,66.7
2023-06-09T06:33:00.630Z,66.8
2023-06-09T06:34:00.515Z,65.8
2023-06-09T06:35:00.509Z,66.1
2023-06-09T06:36:00.504Z,66.1
2023-06-09T06:37:00.498Z,66.1
2023-06-09T06:38:00.494Z,65.8
2023-06-09T06:39:00.507Z,66.1
2023-06-09T06:40:00.509Z,65.2
2023-06-09T06:41:00.512Z,65.5
2023-06-09T06:42:00.515Z,64.2
2023-06-09T06:43:00.521Z,64.9
2023-06-09T06:44:00.507Z,64.6
2023-06-09T06:45:00.518Z,64.9
2023-06-09T06:46:00.536Z,64.6
2023-06-09T06:47:00.551Z,64.9
2023-06-09T06:48:00.548Z,64
2023-06-09T06:49:00.561Z,63.7
2023-06-09T06:50:00.513Z,64.3
2023-06-09T06:51:00.525Z,64
2023-06-09T06:52:00.537Z,63.7
2023-06-09T06:53:00.511Z,64
2023-06-09T06:54:00.511Z,63.7
2023-06-09T06:55:00.533Z,63.1
2023-06-09T06:56:00.535Z,61.8
2023-06-09T06:57:00.513Z,62.4
2023-06-09T06:58:00.525Z,61.8
2023-06-09T06:59:00.528Z,62.4
2023-06-09T07:00:04.353Z,61.8
2023-06-09T07:01:00.595Z,62.5
2023-06-09T07:02:00.532Z,62.5
2023-06-09T07:03:00.599Z,62.5
2023-06-09T07:04:00.604Z,61.5
2023-06-09T07:05:00.530Z,61.5
2023-06-09T07:06:00.533Z,60.9
2023-06-09T07:07:00.539Z,60.9
2023-06-09T07:08:00.532Z,61.2
2023-06-09T07:09:03.077Z,61.2
2023-06-09T07:10:00.536Z,60
2023-06-09T07:11:00.552Z,60
2023-06-09T07:12:00.537Z,59
2023-06-09T07:13:00.537Z,59.3
2023-06-09T07:14:00.567Z,58.4
2023-06-09T07:15:00.536Z,58.7
2023-06-09T07:16:00.589Z,59
2023-06-09T07:17:00.638Z,59
2023-06-09T07:18:00.658Z,58.7
2023-06-09T07:19:00.536Z,58.7
2023-06-09T07:20:00.556Z,59.7
2023-06-09T07:21:02.582Z,58.1
2023-06-09T07:22:00.540Z,58.7
2023-06-09T07:23:00.552Z,58.1
2023-06-09T07:24:00.593Z,58.8
2023-06-09T07:25:01.369Z,58.1
2023-06-09T07:26:00.558Z,57.8
2023-06-09T07:27:00.547Z,58.1
2023-06-09T07:28:00.546Z,58.1
2023-06-09T07:29:00.668Z,58.1
2023-06-09T07:30:00.547Z,58.1
2023-06-09T07:31:00.569Z,57.8
2023-06-09T07:32:00.632Z,57.5
2023-06-09T07:33:00.593Z,57.8
2023-06-09T07:34:00.550Z,57.5
2023-06-09T07:35:00.617Z,57.5
2023-06-09T07:36:00.556Z,58.2
2023-06-09T07:37:00.603Z,58.2
2023-06-09T07:38:00.585Z,58.2
2023-06-09T07:39:00.561Z,58.2
2023-06-09T07:40:14.093Z,58.2
2023-06-09T07:41:00.580Z,57.9
2023-06-09T07:42:00.562Z,56.9
2023-06-09T07:43:00.582Z,57.6
2023-06-09T07:46:00.853Z,56.3
2023-06-09T07:47:00.838Z,55.7
2023-06-09T07:48:00.856Z,55.1
2023-06-09T07:49:00.811Z,55.4
2023-06-09T07:50:00.827Z,54.4
2023-06-09T07:51:02.233Z,53.8
2023-06-09T07:52:07.988Z,53.1
2023-06-09T07:53:00.831Z,54.1
2023-06-09T07:54:00.821Z,53.8
2023-06-09T07:55:00.836Z,54.1
2023-06-09T07:56:00.830Z,54.1
2023-06-09T07:57:00.823Z,54.5
2023-06-09T07:58:00.829Z,53.5
2023-06-09T07:59:00.832Z,53.2
2023-06-09T08:00:00.869Z,53.8
2023-06-09T08:01:00.843Z,53.5
2023-06-09T08:02:00.848Z,55.1
2023-06-09T08:03:00.899Z,53.2
2023-06-09T08:04:00.963Z,52.6
2023-06-09T08:05:00.901Z,52.6
2023-06-09T08:06:00.856Z,52
2023-06-09T08:07:00.841Z,52.3
2023-06-09T08:08:00.852Z,52.3
2023-06-09T08:09:00.854Z,52.3
2023-06-09T08:10:00.901Z,52.6
2023-06-09T08:11:01.330Z,53.3
2023-06-09T08:12:00.842Z,52.6
2023-06-09T08:13:00.844Z,52.3
2023-06-09T08:14:00.850Z,51.7
2023-06-09T08:15:00.845Z,51
2023-06-09T08:16:00.900Z,51.4
2023-06-09T08:17:00.859Z,51.4
2023-06-09T08:18:00.932Z,50.7
2023-06-09T08:19:00.858Z,50.7
2023-06-09T08:20:00.869Z,50.8
2023-06-09T08:21:00.872Z,50.1
2023-06-09T08:22:00.852Z,51.1
2023-06-09T08:23:00.857Z,50.1
2023-06-09T08:24:00.958Z,49.5
2023-06-09T08:25:00.900Z,49.8
2023-06-09T08:26:00.857Z,49.5
2023-06-09T08:27:00.901Z,48.9
2023-06-09T08:28:00.860Z,49.2
2023-06-09T08:29:00.864Z,48.9
2023-06-09T08:30:00.854Z,49.2
2023-06-09T08:31:00.790Z,49.5
2023-06-09T08:32:00.978Z,50.2
2023-06-09T08:33:00.769Z,50.2
2023-06-09T08:34:00.704Z,49.5
2023-06-09T08:35:00.699Z,47.6
2023-06-09T08:36:00.650Z,48.2
2023-06-09T08:37:00.625Z,47.6
2023-06-09T08:38:00.602Z,49.5
2023-06-09T08:39:00.579Z,49.5
2023-06-09T08:40:00.569Z,47.6
2023-06-09T08:41:00.510Z,47.6
2023-06-09T08:42:00.469Z,47.3
2023-06-09T08:43:00.446Z,46.7
2023-06-09T08:44:00.434Z,45.7
2023-06-09T08:45:02.144Z,46.3
2023-06-09T08:46:00.493Z,46.3
2023-06-09T08:47:00.447Z,45
2023-06-09T08:48:00.530Z,46.4
2023-06-09T08:49:00.439Z,45.7
2023-06-09T08:50:00.450Z,47.3
2023-06-09T08:51:00.471Z,45.7
2023-06-09T08:52:00.448Z,45.7
2023-06-09T08:53:00.445Z,46.4
2023-06-09T08:54:00.444Z,47
2023-06-09T08:55:00.463Z,46.4
2023-06-09T08:56:00.464Z,45.1
2023-06-09T08:57:00.460Z,45.1
2023-06-09T08:58:00.451Z,43.8
2023-06-09T08:59:00.463Z,43.2
2023-06-09T09:00:00.492Z,43.5
2023-06-09T09:01:00.500Z,43.8
2023-06-09T09:02:00.479Z,44.8
2023-06-09T09:03:00.515Z,43.2
2023-06-09T09:04:01.864Z,44.2
2023-06-09T09:05:00.472Z,45.1
2023-06-09T09:06:00.483Z,45.8
2023-06-09T09:07:00.475Z,44.5
2023-06-09T09:08:00.459Z,44.5
2023-06-09T09:09:00.466Z,44.5
2023-06-09T09:10:00.478Z,44.2
2023-06-09T09:11:00.481Z,43.2
2023-06-09T09:12:00.467Z,43.9
2023-06-09T09:13:00.501Z,43.2
2023-06-09T09:14:00.491Z,42.9
2023-06-09T09:15:00.480Z,41.9
2023-06-09T09:16:00.509Z,41.9
2023-06-09T09:17:00.470Z,41.9
2023-06-09T09:18:00.526Z,42.6
2023-06-09T09:19:00.485Z,42
2023-06-09T09:20:00.481Z,41.3
2023-06-09T09:21:00.524Z,42
2023-06-09T09:22:00.508Z,41.3
2023-06-09T09:23:00.473Z,40.7
2023-06-09T09:24:00.525Z,41
2023-06-09T09:25:00.495Z,41.3
2023-06-09T09:26:00.514Z,41.3
2023-06-09T09:27:00.498Z,42
2023-06-09T09:28:00.482Z,40.7
2023-06-09T09:29:00.478Z,40.4
2023-06-09T09:30:00.490Z,41.3
2023-06-09T09:31:00.543Z,41
2023-06-09T09:32:00.480Z,41.7
2023-06-09T09:33:00.539Z,40.7
2023-06-09T09:34:00.488Z,40.1
2023-06-09T09:35:00.518Z,42
2023-06-09T09:36:00.487Z,41
2023-06-09T09:37:00.496Z,38.8
2023-06-09T09:38:02.237Z,40.1
2023-06-09T09:39:00.490Z,39.4
2023-06-09T09:40:00.508Z,39.4
2023-06-09T09:41:00.541Z,38.4
2023-06-09T09:42:00.507Z,40.1
2023-06-09T09:43:00.493Z,39.4
2023-06-09T09:44:00.547Z,38.1
2023-06-09T09:45:00.524Z,38.8
2023-06-09T09:46:00.505Z,38.1
2023-06-09T09:47:00.571Z,38.8
2023-06-09T09:48:00.585Z,38.8
2023-06-09T09:49:00.503Z,38.5
2023-06-09T09:50:00.521Z,39.1
2023-06-09T09:51:00.521Z,37.1
2023-06-09T09:52:00.503Z,38.8
2023-06-09T09:53:00.506Z,38.8
2023-06-09T09:54:00.503Z,39.4
2023-06-09T09:55:00.544Z,38.8
2023-06-09T09:56:00.534Z,40.1
2023-06-09T09:57:00.515Z,39.1
2023-06-09T09:58:00.526Z,37.5
2023-06-09T09:59:00.504Z,38.8
2023-06-09T10:00:00.523Z,38.5
2023-06-09T10:01:00.623Z,37.8
2023-06-09T10:02:00.544Z,37.8
2023-06-09T10:03:00.590Z,37.5
2023-06-09T10:04:00.584Z,38.8
2023-06-09T10:05:00.524Z,38.5
2023-06-09T10:06:00.514Z,37.5
2023-06-09T10:07:00.518Z,38.8
2023-06-09T10:08:00.517Z,38.5
2023-06-09T10:09:00.542Z,39.1
2023-06-09T10:10:00.545Z,38.5
2023-06-09T10:11:00.527Z,38.2
2023-06-09T10:12:00.548Z,37.5
2023-06-09T10:13:00.523Z,38.8
2023-06-09T10:14:00.561Z,39.8
2023-06-09T10:15:00.539Z,39.8
2023-06-09T10:16:00.556Z,40.1
2023-06-09T10:17:00.622Z,40.1
2023-06-09T10:18:00.592Z,40.1
2023-06-09T10:19:00.537Z,38.8
2023-06-09T10:20:00.553Z,37.5
2023-06-09T10:21:00.552Z,38.2
2023-06-09T10:22:00.525Z,37.6
2023-06-09T10:23:00.555Z,36.9
2023-06-09T10:24:00.571Z,36.9
2023-06-09T10:25:00.553Z,36.9
2023-06-09T10:26:00.542Z,37.5
2023-06-09T10:27:00.550Z,37.6
2023-06-09T10:28:00.552Z,37.6
2023-06-09T10:29:00.550Z,37.5
2023-06-09T10:30:00.567Z,37.6
2023-06-09T10:31:00.551Z,37.2
2023-06-09T10:32:00.593Z,38.2
2023-06-09T10:33:00.668Z,38.9
2023-06-09T10:34:00.550Z,36.9
2023-06-09T10:35:00.584Z,36.6
2023-06-09T10:36:00.630Z,37.6
2023-06-09T10:37:00.559Z,36.6
2023-06-09T10:38:00.548Z,38.2
2023-06-09T10:39:00.579Z,38.2
2023-06-09T10:40:00.596Z,37.2
2023-06-09T10:41:00.569Z,37.2
2023-06-09T10:42:00.796Z,37.6
2023-06-09T10:43:00.568Z,36.9
2023-06-09T10:44:00.571Z,36.3
2023-06-09T10:45:00.680Z,37.9
2023-06-09T10:46:00.608Z,37.6
2023-06-09T10:47:00.646Z,37.2
2023-06-09T10:48:00.599Z,37.6
2023-06-09T10:49:00.572Z,36.6
2023-06-09T10:50:00.582Z,34.6
2023-06-09T10:51:00.585Z,35.9
2023-06-09T10:52:00.575Z,36.3
2023-06-09T10:53:00.573Z,36.3
2023-06-09T10:54:00.576Z,36.3
2023-06-09T10:55:00.591Z,37.6
2023-06-09T10:56:00.573Z,36.9
2023-06-09T10:57:00.581Z,36.3
2023-06-09T10:58:00.579Z,37.9
2023-06-09T10:59:00.581Z,37.6
2023-06-09T11:00:00.634Z,35.9
2023-06-09T11:01:00.585Z,36.9
2023-06-09T11:02:00.811Z,35
2023-06-09T11:03:00.635Z,35.6
2023-06-09T11:04:00.656Z,35
2023-06-09T11:05:00.608Z,35.3
2023-06-09T11:06:00.605Z,35
2023-06-09T11:07:00.598Z,34.3
2023-06-09T11:08:00.626Z,34.3
2023-06-09T11:09:00.616Z,35
2023-06-09T11:10:00.717Z,35
2023-06-09T11:11:00.585Z,36
2023-06-09T11:12:00.604Z,34.3
2023-06-09T11:13:00.600Z,35
2023-06-09T11:14:00.617Z,34.4
2023-06-09T11:15:05.173Z,33.7
2023-06-09T11:16:00.621Z,33.7
2023-06-09T11:17:00.598Z,33.1
2023-06-09T11:18:00.744Z,33.7
2023-06-09T11:19:00.637Z,33.7
2023-06-09T11:20:00.613Z,33.1
2023-06-09T11:21:00.613Z,33.7
2023-06-09T11:22:00.610Z,34.4
2023-06-09T11:23:00.615Z,33.7
2023-06-09T11:24:00.645Z,33.1
2023-06-09T11:25:00.646Z,34.1
2023-06-09T11:26:00.623Z,34.1
2023-06-09T11:27:00.624Z,33.1
2023-06-09T11:28:00.633Z,32.5
2023-06-09T11:29:00.620Z,31.8
2023-06-09T11:30:00.672Z,32.5
2023-06-09T11:31:00.614Z,33.1
2023-06-09T11:32:00.658Z,33.1
2023-06-09T11:33:00.669Z,32.1
2023-06-09T11:34:00.618Z,32.5
2023-06-09T11:35:00.644Z,32.5
2023-06-09T11:36:00.622Z,32.1
2023-06-09T11:37:00.638Z,31.2
2023-06-09T11:38:00.664Z,31.2
2023-06-09T11:39:00.629Z,31.2
2023-06-09T11:40:00.691Z,31.2
2023-06-09T11:41:00.714Z,31.8
2023-06-09T11:42:00.651Z,32.5
2023-06-09T11:43:00.626Z,30.5
2023-06-09T11:44:00.623Z,30.8
2023-06-09T11:45:00.632Z,32.2
2023-06-09T11:46:00.678Z,31.2
2023-06-09T11:47:00.622Z,31.5
2023-06-09T11:48:00.856Z,30.8
2023-06-09T11:49:00.627Z,31.2
2023-06-09T11:50:00.674Z,31.2
2023-06-09T11:51:00.635Z,30.5
2023-06-09T11:52:00.634Z,31.8
2023-06-09T11:53:00.627Z,31.2
2023-06-09T11:54:00.645Z,31.8
2023-06-09T11:55:00.634Z,31.8
2023-06-09T11:56:00.635Z,30.5
2023-06-09T11:57:00.640Z,31.2
2023-06-09T11:58:00.630Z,31.8
2023-06-09T11:59:00.636Z,30.5
2023-06-09T12:00:00.667Z,31.2
2023-06-09T12:01:00.648Z,31.2
2023-06-09T12:02:00.693Z,30.2
2023-06-09T12:03:00.801Z,29.5
2023-06-09T12:04:00.653Z,30.2
2023-06-09T12:05:00.772Z,30.8
2023-06-09T12:06:00.676Z,30.5
2023-06-09T12:07:00.657Z,30.9
2023-06-09T12:08:00.651Z,31.5
2023-06-09T12:09:00.654Z,31.2
2023-06-09T12:10:00.707Z,30.5
2023-06-09T12:11:00.663Z,31.2
2023-06-09T12:12:00.653Z,29.9
2023-06-09T12:13:00.681Z,29.9
2023-06-09T12:14:00.664Z,30.2
2023-06-09T12:15:00.708Z,29.9
2023-06-09T12:16:00.649Z,29.2
2023-06-09T12:17:00.692Z,29.3
2023-06-09T12:18:00.703Z,28.9
2023-06-09T12:19:00.656Z,29.6
2023-06-09T12:20:00.693Z,29.9
2023-06-09T12:21:00.692Z,28.9
2023-06-09T12:22:00.697Z,28.3
2023-06-09T12:23:04.016Z,29.2
2023-06-09T12:24:00.733Z,29.9
2023-06-09T12:25:00.703Z,29.2
2023-06-09T12:26:00.662Z,29.9
2023-06-09T12:27:00.664Z,29.9
2023-06-09T12:28:00.660Z,28.6
2023-06-09T12:29:00.677Z,29.6
2023-06-09T12:30:00.683Z,30.2
2023-06-09T12:31:00.679Z,28.6
2023-06-09T12:32:00.714Z,29.9
2023-06-09T12:33:00.802Z,29.9
2023-06-09T12:34:00.771Z,29.2
2023-06-09T12:35:00.678Z,29.2
2023-06-09T12:36:00.687Z,29.2
2023-06-09T12:37:00.727Z,28.6
2023-06-09T12:38:00.682Z,28.2
2023-06-09T12:39:00.695Z,28.6
2023-06-09T12:40:00.702Z,29.2
2023-06-09T12:41:00.696Z,29.2
2023-06-09T12:42:00.686Z,29.9
2023-06-09T12:43:00.681Z,29.5
2023-06-09T12:44:00.742Z,27.9
2023-06-09T12:45:00.709Z,27.9
2023-06-09T12:46:00.694Z,28.2
2023-06-09T12:47:00.705Z,28.2
2023-06-09T12:48:00.845Z,27.2
2023-06-09T12:49:00.692Z,28.6
2023-06-09T12:50:00.723Z,28.6
2023-06-09T12:51:00.709Z,29.9
2023-06-09T12:52:00.699Z,28.6
2023-06-09T12:53:00.697Z,29.6
2023-06-09T12:54:00.711Z,28.6
2023-06-09T12:55:10.877Z,28.3
2023-06-09T12:56:00.711Z,28.6
2023-06-09T12:57:00.706Z,28.9
2023-06-09T12:58:00.697Z,27.9
2023-06-09T12:59:00.705Z,28.6
2023-06-09T13:00:15.504Z,27.9
2023-06-09T13:01:00.765Z,28.6
2023-06-09T13:02:00.764Z,27
2023-06-09T13:03:03.322Z,27
2023-06-09T13:04:00.874Z,26.6
2023-06-09T13:05:00.718Z,26.3
2023-06-09T13:06:00.707Z,25.6
2023-06-09T13:07:00.710Z,27.3
2023-06-09T13:08:00.733Z,27.9
2023-06-09T13:09:00.704Z,27.3
2023-06-09T13:10:00.726Z,26
2023-06-09T13:11:00.710Z,27.6
2023-06-09T13:12:00.712Z,27.6
2023-06-09T13:13:00.731Z,27.3
2023-06-09T13:14:00.711Z,28
2023-06-09T13:15:00.751Z,28.6
2023-06-09T13:16:00.705Z,28
2023-06-09T13:17:00.787Z,27.6
2023-06-09T13:18:00.799Z,28
2023-06-09T13:19:00.734Z,27.6
2023-06-09T13:20:00.832Z,28.6
2023-06-09T13:21:00.752Z,28.3
2023-06-09T13:22:00.740Z,28.3
2023-06-09T13:23:00.725Z,28.3
2023-06-09T13:24:00.773Z,28
2023-06-09T13:25:00.735Z,27.3
2023-06-09T13:26:00.746Z,26.7